sensor_id;sensor_type;location;lat;lon;timestamp;temperature;humidity
42989;DHT22;28622;43.716;20.668;2023-02-28T00:00:46;3.20;99.90
42989;DHT22;28622;43.716;20.668;2023-02-28T00:03:11;3.10;99.90
42989;DHT22;28622;43.716;20.668;2023-02-28T00:05:37;3.10;99.90
42989;DHT22;28622;43.716;20.668;2023-02-28T00:08:03;3.10;99.90
42989;DHT22;28622;43.716;20.668;2023-02-28T00:10:30;3.20;99.90
42989;DHT22;28622;43.716;20.668;2023-02-28T00:13:01;3.20;99.90
42989;DHT22;28622;43.716;20.668;2023-02-28T00:15:27;3.20;99.90
42989;DHT22;28622;43.716;20.668;2023-02-28T00:17:52;3.30;99.90
42989;DHT22;28622;43.716;20.668;2023-02-28T00:20:19;3.20;99.90
42989;DHT22;28622;43.716;20.668;2023-02-28T00:22:47;3.20;99.90
42989;DHT22;28622;43.716;20.668;2023-02-28T00:25:16;3.20;99.90
42989;DHT22;28622;43.716;20.668;2023-02-28T00:27:42;3.30;99.90
42989;DHT22;28622;43.716;20.668;2023-02-28T00:30:12;3.30;99.90
42989;DHT22;28622;43.716;20.668;2023-02-28T00:32:38;3.30;99.90
42989;DHT22;28622;43.716;20.668;2023-02-28T00:35:04;3.20;99.90
42989;DHT22;28622;43.716;20.668;2023-02-28T00:37:30;3.30;99.90
42989;DHT22;28622;43.716;20.668;2023-02-28T00:39:56;3.20;99.90
42989;DHT22;28622;43.716;20.668;2023-02-28T00:42:23;3.10;99.90
42989;DHT22;28622;43.716;20.668;2023-02-28T00:44:48;3.10;99.90
42989;DHT22;28622;43.716;20.668;2023-02-28T00:47:14;3.00;99.90
42989;DHT22;28622;43.716;20.668;2023-02-28T00:49:40;2.90;99.90
42989;DHT22;28622;43.716;20.668;2023-02-28T00:52:06;2.90;99.90
42989;DHT22;28622;43.716;20.668;2023-02-28T00:54:32;3.00;99.90
42989;DHT22;28622;43.716;20.668;2023-02-28T00:56:59;3.00;99.90
42989;DHT22;28622;43.716;20.668;2023-02-28T00:59:25;3.00;99.90
42989;DHT22;28622;43.716;20.668;2023-02-28T01:01:51;3.00;99.90
42989;DHT22;28622;43.716;20.668;2023-02-28T01:04:17;3.00;99.90
42989;DHT22;28622;43.716;20.668;2023-02-28T01:06:43;3.10;99.90
42989;DHT22;28622;43.716;20.668;2023-02-28T01:09:09;3.10;99.90
42989;DHT22;28622;43.716;20.668;2023-02-28T01:11:35;3.10;99.90
42989;DHT22;28622;43.716;20.668;2023-02-28T01:14:01;3.10;99.90
42989;DHT22;28622;43.716;20.668;2023-02-28T01:16:27;3.20;99.90
42989;DHT22;28622;43.716;20.668;2023-02-28T01:18:53;3.20;99.90
42989;DHT22;28622;43.716;20.668;2023-02-28T01:21:20;3.20;99.90
42989;DHT22;28622;43.716;20.668;2023-02-28T01:23:46;3.20;99.90
42989;DHT22;28622;43.716;20.668;2023-02-28T01:26:19;3.30;99.90
42989;DHT22;28622;43.716;20.668;2023-02-28T01:28:45;3.30;99.90
42989;DHT22;28622;43.716;20.668;2023-02-28T01:31:11;3.30;99.90
42989;DHT22;28622;43.716;20.668;2023-02-28T01:33:38;3.20;99.90
42989;DHT22;28622;43.716;20.668;2023-02-28T01:36:07;3.20;99.90
42989;DHT22;28622;43.716;20.668;2023-02-28T01:38:33;3.20;99.90
42989;DHT22;28622;43.716;20.668;2023-02-28T01:40:59;3.30;99.90
42989;DHT22;28622;43.716;20.668;2023-02-28T01:44:54;3.30;99.90
42989;DHT22;28622;43.716;20.668;2023-02-28T01:46:14;3.20;99.90
42989;DHT22;28622;43.716;20.668;2023-02-28T01:49:16;3.10;99.90
42989;DHT22;28622;43.716;20.668;2023-02-28T01:51:41;3.10;99.90
42989;DHT22;28622;43.716;20.668;2023-02-28T01:54:14;3.10;99.90
42989;DHT22;28622;43.716;20.668;2023-02-28T01:56:48;3.10;99.90
42989;DHT22;28622;43.716;20.668;2023-02-28T02:00:05;3.10;99.90
42989;DHT22;28622;43.716;20.668;2023-02-28T02:02:10;3.10;99.90
42989;DHT22;28622;43.716;20.668;2023-02-28T02:04:46;3.10;99.90
42989;DHT22;28622;43.716;20.668;2023-02-28T02:07:15;3.00;99.90
42989;DHT22;28622;43.716;20.668;2023-02-28T02:09:41;3.10;99.90
42989;DHT22;28622;43.716;20.668;2023-02-28T02:17:48;3.20;99.90
42989;DHT22;28622;43.716;20.668;2023-02-28T02:35:04;3.10;99.90
42989;DHT22;28622;43.716;20.668;2023-02-28T02:37:52;3.10;99.90
42989;DHT22;28622;43.716;20.668;2023-02-28T02:40:22;3.10;99.90
42989;DHT22;28622;43.716;20.668;2023-02-28T02:42:55;3.10;99.90
42989;DHT22;28622;43.716;20.668;2023-02-28T02:45:28;3.10;99.90
42989;DHT22;28622;43.716;20.668;2023-02-28T02:47:57;3.10;99.90
42989;DHT22;28622;43.716;20.668;2023-02-28T02:50:29;3.00;99.90
42989;DHT22;28622;43.716;20.668;2023-02-28T02:52:58;3.00;99.90
42989;DHT22;28622;43.716;20.668;2023-02-28T02:55:26;3.10;99.90
42989;DHT22;28622;43.716;20.668;2023-02-28T02:57:57;3.10;99.90
42989;DHT22;28622;43.716;20.668;2023-02-28T03:00:27;3.10;99.90
42989;DHT22;28622;43.716;20.668;2023-02-28T03:02:55;3.10;99.90
42989;DHT22;28622;43.716;20.668;2023-02-28T03:05:27;3.20;99.90
42989;DHT22;28622;43.716;20.668;2023-02-28T03:07:55;3.20;99.90
42989;DHT22;28622;43.716;20.668;2023-02-28T03:10:57;3.20;99.90
42989;DHT22;28622;43.716;20.668;2023-02-28T03:19:11;3.20;99.90
42989;DHT22;28622;43.716;20.668;2023-02-28T03:27:30;3.30;99.90
42989;DHT22;28622;43.716;20.668;2023-02-28T03:30:05;3.30;99.90
42989;DHT22;28622;43.716;20.668;2023-02-28T03:32:55;3.30;99.90
42989;DHT22;28622;43.716;20.668;2023-02-28T03:35:29;3.30;99.90
42989;DHT22;28622;43.716;20.668;2023-02-28T03:38:38;3.30;99.90
42989;DHT22;28622;43.716;20.668;2023-02-28T03:41:30;3.20;99.90
42989;DHT22;28622;43.716;20.668;2023-02-28T03:44:01;3.20;99.90
42989;DHT22;28622;43.716;20.668;2023-02-28T03:46:32;3.20;99.90
42989;DHT22;28622;43.716;20.668;2023-02-28T03:49:20;3.20;99.90
42989;DHT22;28622;43.716;20.668;2023-02-28T03:51:50;3.20;99.90
42989;DHT22;28622;43.716;20.668;2023-02-28T03:54:22;3.20;99.90
42989;DHT22;28622;43.716;20.668;2023-02-28T03:56:53;3.10;99.90
42989;DHT22;28622;43.716;20.668;2023-02-28T04:01:53;3.10;99.90
42989;DHT22;28622;43.716;20.668;2023-02-28T04:04:21;3.10;99.90
42989;DHT22;28622;43.716;20.668;2023-02-28T04:06:50;3.10;99.90
42989;DHT22;28622;43.716;20.668;2023-02-28T04:09:16;3.10;99.90
42989;DHT22;28622;43.716;20.668;2023-02-28T04:11:44;3.10;99.90
42989;DHT22;28622;43.716;20.668;2023-02-28T04:14:11;3.20;99.90
42989;DHT22;28622;43.716;20.668;2023-02-28T04:16:39;3.20;99.90
42989;DHT22;28622;43.716;20.668;2023-02-28T04:19:07;3.20;99.90
42989;DHT22;28622;43.716;20.668;2023-02-28T04:21:36;3.20;99.90
42989;DHT22;28622;43.716;20.668;2023-02-28T04:24:02;3.20;99.90
42989;DHT22;28622;43.716;20.668;2023-02-28T04:26:35;3.20;99.90
42989;DHT22;28622;43.716;20.668;2023-02-28T04:29:03;3.10;99.90
42989;DHT22;28622;43.716;20.668;2023-02-28T04:31:30;3.20;99.90
42989;DHT22;28622;43.716;20.668;2023-02-28T04:33:55;3.20;99.90
42989;DHT22;28622;43.716;20.668;2023-02-28T04:36:21;3.20;99.90
42989;DHT22;28622;43.716;20.668;2023-02-28T04:38:49;3.20;99.90
42989;DHT22;28622;43.716;20.668;2023-02-28T04:41:15;3.20;99.90
42989;DHT22;28622;43.716;20.668;2023-02-28T04:43:41;3.30;99.90
42989;DHT22;28622;43.716;20.668;2023-02-28T04:46:08;3.30;99.90
42989;DHT22;28622;43.716;20.668;2023-02-28T04:48:36;3.30;99.90
42989;DHT22;28622;43.716;20.668;2023-02-28T04:51:08;3.30;99.90
42989;DHT22;28622;43.716;20.668;2023-02-28T04:53:35;3.30;99.90
42989;DHT22;28622;43.716;20.668;2023-02-28T04:56:01;3.30;99.90
42989;DHT22;28622;43.716;20.668;2023-02-28T04:58:27;3.30;99.90
42989;DHT22;28622;43.716;20.668;2023-02-28T05:00:53;3.30;99.90
42989;DHT22;28622;43.716;20.668;2023-02-28T05:03:20;3.30;99.90
42989;DHT22;28622;43.716;20.668;2023-02-28T05:05:48;3.30;99.90
42989;DHT22;28622;43.716;20.668;2023-02-28T05:08:14;3.30;99.90
42989;DHT22;28622;43.716;20.668;2023-02-28T05:10:40;3.30;99.90
42989;DHT22;28622;43.716;20.668;2023-02-28T05:13:06;3.30;99.90
42989;DHT22;28622;43.716;20.668;2023-02-28T05:15:31;3.30;99.90
42989;DHT22;28622;43.716;20.668;2023-02-28T05:17:57;3.30;99.90
42989;DHT22;28622;43.716;20.668;2023-02-28T05:20:23;3.40;99.90
42989;DHT22;28622;43.716;20.668;2023-02-28T05:22:49;3.30;99.90
42989;DHT22;28622;43.716;20.668;2023-02-28T05:25:20;3.30;99.90
42989;DHT22;28622;43.716;20.668;2023-02-28T05:27:47;3.30;99.90
42989;DHT22;28622;43.716;20.668;2023-02-28T05:30:13;3.30;99.90
42989;DHT22;28622;43.716;20.668;2023-02-28T05:32:40;3.40;99.90
42989;DHT22;28622;43.716;20.668;2023-02-28T05:35:10;3.40;99.90
42989;DHT22;28622;43.716;20.668;2023-02-28T05:37:37;3.30;99.90
42989;DHT22;28622;43.716;20.668;2023-02-28T05:40:04;3.20;99.90
42989;DHT22;28622;43.716;20.668;2023-02-28T05:42:37;3.20;99.90
42989;DHT22;28622;43.716;20.668;2023-02-28T05:45:04;3.30;99.90
42989;DHT22;28622;43.716;20.668;2023-02-28T05:47:29;3.30;99.90
42989;DHT22;28622;43.716;20.668;2023-02-28T05:49:55;3.30;99.90
42989;DHT22;28622;43.716;20.668;2023-02-28T05:52:21;3.40;99.90
42989;DHT22;28622;43.716;20.668;2023-02-28T05:54:47;3.40;99.90
42989;DHT22;28622;43.716;20.668;2023-02-28T05:57:13;3.40;99.90
42989;DHT22;28622;43.716;20.668;2023-02-28T05:59:39;3.40;99.90
42989;DHT22;28622;43.716;20.668;2023-02-28T06:02:08;3.40;99.90
42989;DHT22;28622;43.716;20.668;2023-02-28T06:04:36;3.40;99.90
42989;DHT22;28622;43.716;20.668;2023-02-28T06:07:02;3.50;99.90
42989;DHT22;28622;43.716;20.668;2023-02-28T06:09:28;3.60;99.90
42989;DHT22;28622;43.716;20.668;2023-02-28T06:11:57;3.60;99.90
42989;DHT22;28622;43.716;20.668;2023-02-28T06:14:22;3.70;99.90
42989;DHT22;28622;43.716;20.668;2023-02-28T06:16:48;3.70;99.90
42989;DHT22;28622;43.716;20.668;2023-02-28T06:19:14;3.70;99.90
42989;DHT22;28622;43.716;20.668;2023-02-28T06:21:41;3.60;99.90
42989;DHT22;28622;43.716;20.668;2023-02-28T06:24:07;3.70;99.90
42989;DHT22;28622;43.716;20.668;2023-02-28T06:26:33;3.70;99.90
42989;DHT22;28622;43.716;20.668;2023-02-28T06:28:59;3.70;99.90
42989;DHT22;28622;43.716;20.668;2023-02-28T06:31:26;3.60;99.90
42989;DHT22;28622;43.716;20.668;2023-02-28T06:33:54;3.70;99.90
42989;DHT22;28622;43.716;20.668;2023-02-28T06:36:23;3.60;99.90
42989;DHT22;28622;43.716;20.668;2023-02-28T06:38:52;3.70;99.90
42989;DHT22;28622;43.716;20.668;2023-02-28T06:41:24;3.60;99.90
42989;DHT22;28622;43.716;20.668;2023-02-28T06:43:51;3.60;99.90
42989;DHT22;28622;43.716;20.668;2023-02-28T06:46:17;3.60;99.90
42989;DHT22;28622;43.716;20.668;2023-02-28T06:48:43;3.60;99.90
42989;DHT22;28622;43.716;20.668;2023-02-28T06:51:12;3.70;99.90
42989;DHT22;28622;43.716;20.668;2023-02-28T06:53:39;3.60;99.90
42989;DHT22;28622;43.716;20.668;2023-02-28T06:56:07;3.70;99.90
42989;DHT22;28622;43.716;20.668;2023-02-28T06:58:34;3.80;99.90
42989;DHT22;28622;43.716;20.668;2023-02-28T07:01:00;3.80;99.90
42989;DHT22;28622;43.716;20.668;2023-02-28T07:03:26;3.70;99.90
42989;DHT22;28622;43.716;20.668;2023-02-28T07:05:52;3.80;99.90
42989;DHT22;28622;43.716;20.668;2023-02-28T07:08:17;3.80;99.90
42989;DHT22;28622;43.716;20.668;2023-02-28T07:10:43;3.80;99.90
42989;DHT22;28622;43.716;20.668;2023-02-28T07:13:10;3.80;99.90
42989;DHT22;28622;43.716;20.668;2023-02-28T07:15:36;3.80;99.90
42989;DHT22;28622;43.716;20.668;2023-02-28T07:18:02;3.70;99.90
42989;DHT22;28622;43.716;20.668;2023-02-28T07:20:29;3.70;99.90
42989;DHT22;28622;43.716;20.668;2023-02-28T07:22:55;3.70;99.90
42989;DHT22;28622;43.716;20.668;2023-02-28T07:25:26;3.70;99.90
42989;DHT22;28622;43.716;20.668;2023-02-28T07:27:52;3.80;99.90
42989;DHT22;28622;43.716;20.668;2023-02-28T07:30:19;3.80;99.90
42989;DHT22;28622;43.716;20.668;2023-02-28T07:32:45;3.80;99.90
42989;DHT22;28622;43.716;20.668;2023-02-28T07:35:11;3.80;99.90
42989;DHT22;28622;43.716;20.668;2023-02-28T07:37:37;3.90;99.90
42989;DHT22;28622;43.716;20.668;2023-02-28T07:40:04;3.90;99.90
42989;DHT22;28622;43.716;20.668;2023-02-28T07:42:37;4.00;99.90
42989;DHT22;28622;43.716;20.668;2023-02-28T07:45:04;4.10;99.90
42989;DHT22;28622;43.716;20.668;2023-02-28T07:47:30;4.00;99.90
42989;DHT22;28622;43.716;20.668;2023-02-28T07:49:58;4.00;99.90
42989;DHT22;28622;43.716;20.668;2023-02-28T07:52:24;4.00;99.90
42989;DHT22;28622;43.716;20.668;2023-02-28T07:54:50;4.10;99.90
42989;DHT22;28622;43.716;20.668;2023-02-28T07:57:19;4.10;99.90
42989;DHT22;28622;43.716;20.668;2023-02-28T07:59:45;4.10;99.90
42989;DHT22;28622;43.716;20.668;2023-02-28T08:02:14;4.10;99.90
42989;DHT22;28622;43.716;20.668;2023-02-28T08:04:41;4.20;99.90
42989;DHT22;28622;43.716;20.668;2023-02-28T08:07:07;4.30;99.90
42989;DHT22;28622;43.716;20.668;2023-02-28T08:09:33;4.20;99.90
42989;DHT22;28622;43.716;20.668;2023-02-28T08:11:59;4.30;99.90
42989;DHT22;28622;43.716;20.668;2023-02-28T08:14:25;4.30;99.90
42989;DHT22;28622;43.716;20.668;2023-02-28T08:16:51;4.30;99.90
42989;DHT22;28622;43.716;20.668;2023-02-28T08:19:17;4.30;99.90
42989;DHT22;28622;43.716;20.668;2023-02-28T08:21:43;4.30;99.90
42989;DHT22;28622;43.716;20.668;2023-02-28T08:24:08;4.30;99.90
42989;DHT22;28622;43.716;20.668;2023-02-28T08:26:34;4.40;99.90
42989;DHT22;28622;43.716;20.668;2023-02-28T08:29:00;4.40;99.90
42989;DHT22;28622;43.716;20.668;2023-02-28T08:31:26;4.40;99.90
42989;DHT22;28622;43.716;20.668;2023-02-28T08:33:51;4.40;99.90
42989;DHT22;28622;43.716;20.668;2023-02-28T08:36:19;4.40;99.90
42989;DHT22;28622;43.716;20.668;2023-02-28T08:38:45;4.50;99.90
42989;DHT22;28622;43.716;20.668;2023-02-28T08:41:12;4.50;99.90
42989;DHT22;28622;43.716;20.668;2023-02-28T08:43:39;4.50;99.90
42989;DHT22;28622;43.716;20.668;2023-02-28T08:46:06;4.60;99.90
42989;DHT22;28622;43.716;20.668;2023-02-28T08:48:34;4.60;99.90
42989;DHT22;28622;43.716;20.668;2023-02-28T08:51:12;4.60;99.90
42989;DHT22;28622;43.716;20.668;2023-02-28T08:53:39;4.70;99.90
42989;DHT22;28622;43.716;20.668;2023-02-28T08:56:08;4.70;99.90
42989;DHT22;28622;43.716;20.668;2023-02-28T08:58:34;4.70;99.90
42989;DHT22;28622;43.716;20.668;2023-02-28T09:01:00;4.70;99.90
42989;DHT22;28622;43.716;20.668;2023-02-28T09:03:32;4.70;99.90
42989;DHT22;28622;43.716;20.668;2023-02-28T09:05:59;4.70;99.90
42989;DHT22;28622;43.716;20.668;2023-02-28T09:08:27;4.80;99.90
42989;DHT22;28622;43.716;20.668;2023-02-28T09:10:54;4.90;99.90
42989;DHT22;28622;43.716;20.668;2023-02-28T09:13:22;5.00;99.90
42989;DHT22;28622;43.716;20.668;2023-02-28T09:15:48;5.10;99.90
42989;DHT22;28622;43.716;20.668;2023-02-28T09:18:17;5.10;99.90
42989;DHT22;28622;43.716;20.668;2023-02-28T09:20:43;5.20;99.90
42989;DHT22;28622;43.716;20.668;2023-02-28T09:23:11;5.30;99.90
42989;DHT22;28622;43.716;20.668;2023-02-28T09:25:37;5.20;99.90
42989;DHT22;28622;43.716;20.668;2023-02-28T09:28:04;5.20;99.90
42989;DHT22;28622;43.716;20.668;2023-02-28T09:30:30;5.20;99.90
42989;DHT22;28622;43.716;20.668;2023-02-28T09:32:56;5.20;99.90
42989;DHT22;28622;43.716;20.668;2023-02-28T09:35:23;5.20;99.90
42989;DHT22;28622;43.716;20.668;2023-02-28T09:37:50;5.30;99.90
42989;DHT22;28622;43.716;20.668;2023-02-28T09:40:22;5.30;99.90
42989;DHT22;28622;43.716;20.668;2023-02-28T09:42:51;5.20;99.90
42989;DHT22;28622;43.716;20.668;2023-02-28T09:45:31;5.20;99.90
42989;DHT22;28622;43.716;20.668;2023-02-28T09:48:15;5.10;99.90
42989;DHT22;28622;43.716;20.668;2023-02-28T09:50:54;5.10;99.90
42989;DHT22;28622;43.716;20.668;2023-02-28T09:53:33;5.20;99.90
42989;DHT22;28622;43.716;20.668;2023-02-28T10:07:17;5.20;99.90
42989;DHT22;28622;43.716;20.668;2023-02-28T10:09:48;5.20;99.90
42989;DHT22;28622;43.716;20.668;2023-02-28T10:12:16;5.00;99.90
42989;DHT22;28622;43.716;20.668;2023-02-28T10:14:46;5.10;99.90
42989;DHT22;28622;43.716;20.668;2023-02-28T10:17:39;5.20;99.90
42989;DHT22;28622;43.716;20.668;2023-02-28T10:20:20;5.30;99.90
42989;DHT22;28622;43.716;20.668;2023-02-28T10:25:35;5.50;99.90
42989;DHT22;28622;43.716;20.668;2023-02-28T10:28:09;5.40;99.90
42989;DHT22;28622;43.716;20.668;2023-02-28T10:30:40;5.50;99.90
42989;DHT22;28622;43.716;20.668;2023-02-28T10:35:44;5.50;99.90
42989;DHT22;28622;43.716;20.668;2023-02-28T10:38:17;5.40;99.90
42989;DHT22;28622;43.716;20.668;2023-02-28T10:40:44;5.50;99.90
42989;DHT22;28622;43.716;20.668;2023-02-28T10:45:40;5.40;99.90
42989;DHT22;28622;43.716;20.668;2023-02-28T10:56:20;5.50;99.90
42989;DHT22;28622;43.716;20.668;2023-02-28T10:58:56;5.50;99.90
42989;DHT22;28622;43.716;20.668;2023-02-28T11:04:00;5.50;99.90
42989;DHT22;28622;43.716;20.668;2023-02-28T11:06:30;5.50;99.90
42989;DHT22;28622;43.716;20.668;2023-02-28T11:08:58;5.50;99.90
42989;DHT22;28622;43.716;20.668;2023-02-28T11:11:27;5.60;99.90
42989;DHT22;28622;43.716;20.668;2023-02-28T11:13:57;5.60;99.90
42989;DHT22;28622;43.716;20.668;2023-02-28T11:16:35;5.60;99.90
42989;DHT22;28622;43.716;20.668;2023-02-28T11:19:04;5.70;99.90
42989;DHT22;28622;43.716;20.668;2023-02-28T11:21:36;5.80;99.90
42989;DHT22;28622;43.716;20.668;2023-02-28T11:24:25;5.80;99.90
42989;DHT22;28622;43.716;20.668;2023-02-28T11:26:52;5.80;99.90
42989;DHT22;28622;43.716;20.668;2023-02-28T11:29:19;5.80;99.90
42989;DHT22;28622;43.716;20.668;2023-02-28T11:34:36;5.70;99.90
42989;DHT22;28622;43.716;20.668;2023-02-28T11:37:05;5.60;99.90
42989;DHT22;28622;43.716;20.668;2023-02-28T11:39:35;5.60;99.90
42989;DHT22;28622;43.716;20.668;2023-02-28T11:47:47;5.60;99.90
42989;DHT22;28622;43.716;20.668;2023-02-28T11:56:25;5.60;99.90
42989;DHT22;28622;43.716;20.668;2023-02-28T11:59:10;5.60;99.90
42989;DHT22;28622;43.716;20.668;2023-02-28T12:15:58;5.70;99.90
42989;DHT22;28622;43.716;20.668;2023-02-28T12:18:28;5.60;99.90
42989;DHT22;28622;43.716;20.668;2023-02-28T12:23:56;5.40;99.90
42989;DHT22;28622;43.716;20.668;2023-02-28T12:26:46;5.20;99.90
42989;DHT22;28622;43.716;20.668;2023-02-28T12:29:19;5.10;99.90
42989;DHT22;28622;43.716;20.668;2023-02-28T12:34:42;5.00;99.90
42989;DHT22;28622;43.716;20.668;2023-02-28T12:37:20;5.00;99.90
42989;DHT22;28622;43.716;20.668;2023-02-28T12:39:51;5.00;99.90
42989;DHT22;28622;43.716;20.668;2023-02-28T12:42:45;4.90;99.90
42989;DHT22;28622;43.716;20.668;2023-02-28T12:45:24;4.90;99.90
42989;DHT22;28622;43.716;20.668;2023-02-28T12:48:19;5.00;99.90
42989;DHT22;28622;43.716;20.668;2023-02-28T12:50:45;5.00;99.90
42989;DHT22;28622;43.716;20.668;2023-02-28T12:56:33;5.10;99.90
42989;DHT22;28622;43.716;20.668;2023-02-28T12:59:13;5.00;99.90
42989;DHT22;28622;43.716;20.668;2023-02-28T13:02:01;5.00;99.90
42989;DHT22;28622;43.716;20.668;2023-02-28T13:10:10;4.90;99.90
42989;DHT22;28622;43.716;20.668;2023-02-28T13:12:36;5.00;99.90
42989;DHT22;28622;43.716;20.668;2023-02-28T13:15:21;5.00;99.90
42989;DHT22;28622;43.716;20.668;2023-02-28T13:17:51;5.00;99.90
42989;DHT22;28622;43.716;20.668;2023-02-28T13:20:29;5.00;99.90
42989;DHT22;28622;43.716;20.668;2023-02-28T13:22:56;5.10;99.90
42989;DHT22;28622;43.716;20.668;2023-02-28T13:28:13;5.10;99.90
42989;DHT22;28622;43.716;20.668;2023-02-28T13:33:29;5.10;99.90
42989;DHT22;28622;43.716;20.668;2023-02-28T13:38:41;5.10;99.90
42989;DHT22;28622;43.716;20.668;2023-02-28T13:49:28;5.10;99.90
42989;DHT22;28622;43.716;20.668;2023-02-28T13:52:00;5.00;99.90
42989;DHT22;28622;43.716;20.668;2023-02-28T13:57:37;5.00;99.90
42989;DHT22;28622;43.716;20.668;2023-02-28T14:05:36;5.00;99.90
42989;DHT22;28622;43.716;20.668;2023-02-28T14:08:18;5.10;99.90
42989;DHT22;28622;43.716;20.668;2023-02-28T14:10:48;5.10;99.90
42989;DHT22;28622;43.716;20.668;2023-02-28T14:15:57;5.10;99.90
42989;DHT22;28622;43.716;20.668;2023-02-28T14:18:33;5.10;99.90
42989;DHT22;28622;43.716;20.668;2023-02-28T14:38:51;5.10;99.90
42989;DHT22;28622;43.716;20.668;2023-02-28T14:41:39;5.10;99.90
42989;DHT22;28622;43.716;20.668;2023-02-28T14:44:31;5.00;99.90
42989;DHT22;28622;43.716;20.668;2023-02-28T14:47:01;4.90;99.90
42989;DHT22;28622;43.716;20.668;2023-02-28T14:49:36;4.80;99.90
42989;DHT22;28622;43.716;20.668;2023-02-28T14:54:36;4.70;99.90
42989;DHT22;28622;43.716;20.668;2023-02-28T14:57:03;4.70;99.90
42989;DHT22;28622;43.716;20.668;2023-02-28T14:59:32;4.70;99.90
42989;DHT22;28622;43.716;20.668;2023-02-28T15:02:21;4.60;99.90
42989;DHT22;28622;43.716;20.668;2023-02-28T15:04:56;4.60;99.90
42989;DHT22;28622;43.716;20.668;2023-02-28T15:07:22;4.60;99.90
42989;DHT22;28622;43.716;20.668;2023-02-28T15:10:13;4.60;99.90
42989;DHT22;28622;43.716;20.668;2023-02-28T15:12:40;4.50;99.90
42989;DHT22;28622;43.716;20.668;2023-02-28T15:15:15;4.60;99.90
42989;DHT22;28622;43.716;20.668;2023-02-28T15:17:45;4.50;99.90
42989;DHT22;28622;43.716;20.668;2023-02-28T15:20:15;4.50;99.90
42989;DHT22;28622;43.716;20.668;2023-02-28T15:22:42;4.50;99.90
42989;DHT22;28622;43.716;20.668;2023-02-28T15:25:13;4.50;99.90
42989;DHT22;28622;43.716;20.668;2023-02-28T15:27:45;4.50;99.90
42989;DHT22;28622;43.716;20.668;2023-02-28T15:30:17;4.40;99.90
42989;DHT22;28622;43.716;20.668;2023-02-28T15:32:44;4.40;99.90
42989;DHT22;28622;43.716;20.668;2023-02-28T15:37:52;4.40;99.90
42989;DHT22;28622;43.716;20.668;2023-02-28T15:40:36;4.30;99.90
42989;DHT22;28622;43.716;20.668;2023-02-28T15:43:11;4.40;99.90
42989;DHT22;28622;43.716;20.668;2023-02-28T15:50:46;4.30;99.90
42989;DHT22;28622;43.716;20.668;2023-02-28T15:53:17;4.30;99.90
42989;DHT22;28622;43.716;20.668;2023-02-28T15:55:44;4.30;99.90
42989;DHT22;28622;43.716;20.668;2023-02-28T15:58:12;4.30;99.90
42989;DHT22;28622;43.716;20.668;2023-02-28T16:00:39;4.20;99.90
42989;DHT22;28622;43.716;20.668;2023-02-28T16:03:24;4.20;99.90
42989;DHT22;28622;43.716;20.668;2023-02-28T16:08:41;4.20;99.90
42989;DHT22;28622;43.716;20.668;2023-02-28T16:11:09;4.20;99.90
42989;DHT22;28622;43.716;20.668;2023-02-28T16:13:36;4.30;99.90
42989;DHT22;28622;43.716;20.668;2023-02-28T16:16:02;4.20;99.90
42989;DHT22;28622;43.716;20.668;2023-02-28T16:18:28;4.20;99.90
42989;DHT22;28622;43.716;20.668;2023-02-28T16:20:53;4.20;99.90
42989;DHT22;28622;43.716;20.668;2023-02-28T16:23:19;4.20;99.90
42989;DHT22;28622;43.716;20.668;2023-02-28T16:25:45;4.10;99.90
42989;DHT22;28622;43.716;20.668;2023-02-28T16:28:27;4.10;99.90
42989;DHT22;28622;43.716;20.668;2023-02-28T16:31:00;4.10;99.90
42989;DHT22;28622;43.716;20.668;2023-02-28T16:33:28;4.00;99.90
42989;DHT22;28622;43.716;20.668;2023-02-28T16:35:54;4.00;99.90
42989;DHT22;28622;43.716;20.668;2023-02-28T16:38:20;4.00;99.90
42989;DHT22;28622;43.716;20.668;2023-02-28T16:40:47;4.00;99.90
42989;DHT22;28622;43.716;20.668;2023-02-28T16:43:20;4.00;99.90
42989;DHT22;28622;43.716;20.668;2023-02-28T16:45:47;3.90;99.90
42989;DHT22;28622;43.716;20.668;2023-02-28T16:48:15;3.90;99.90
42989;DHT22;28622;43.716;20.668;2023-02-28T16:50:42;3.90;99.90
42989;DHT22;28622;43.716;20.668;2023-02-28T16:53:09;3.90;99.90
42989;DHT22;28622;43.716;20.668;2023-02-28T16:55:35;3.90;99.90
42989;DHT22;28622;43.716;20.668;2023-02-28T16:58:01;3.90;99.90
42989;DHT22;28622;43.716;20.668;2023-02-28T17:00:29;3.90;99.90
42989;DHT22;28622;43.716;20.668;2023-02-28T17:02:57;3.90;99.90
42989;DHT22;28622;43.716;20.668;2023-02-28T17:05:25;4.00;99.90
42989;DHT22;28622;43.716;20.668;2023-02-28T17:07:51;4.00;99.90
42989;DHT22;28622;43.716;20.668;2023-02-28T17:10:22;3.90;99.90
42989;DHT22;28622;43.716;20.668;2023-02-28T17:12:48;3.90;99.90
42989;DHT22;28622;43.716;20.668;2023-02-28T17:15:16;4.00;99.90
42989;DHT22;28622;43.716;20.668;2023-02-28T17:17:43;3.90;99.90
42989;DHT22;28622;43.716;20.668;2023-02-28T17:20:17;3.90;99.90
42989;DHT22;28622;43.716;20.668;2023-02-28T17:22:43;3.90;99.90
42989;DHT22;28622;43.716;20.668;2023-02-28T17:25:09;3.90;99.90
42989;DHT22;28622;43.716;20.668;2023-02-28T17:27:35;3.90;99.90
42989;DHT22;28622;43.716;20.668;2023-02-28T17:30:03;3.80;99.90
42989;DHT22;28622;43.716;20.668;2023-02-28T17:32:34;3.80;99.90
42989;DHT22;28622;43.716;20.668;2023-02-28T17:35:00;3.80;99.90
42989;DHT22;28622;43.716;20.668;2023-02-28T17:37:25;3.80;99.90
42989;DHT22;28622;43.716;20.668;2023-02-28T17:39:51;3.80;99.90
42989;DHT22;28622;43.716;20.668;2023-02-28T17:42:17;3.80;99.90
42989;DHT22;28622;43.716;20.668;2023-02-28T17:44:43;3.90;99.90
42989;DHT22;28622;43.716;20.668;2023-02-28T17:47:11;3.90;99.90
42989;DHT22;28622;43.716;20.668;2023-02-28T17:49:37;3.90;99.90
42989;DHT22;28622;43.716;20.668;2023-02-28T17:52:03;3.90;99.90
42989;DHT22;28622;43.716;20.668;2023-02-28T17:54:29;3.90;99.90
42989;DHT22;28622;43.716;20.668;2023-02-28T17:56:54;3.90;99.90
42989;DHT22;28622;43.716;20.668;2023-02-28T17:59:20;3.90;99.90
42989;DHT22;28622;43.716;20.668;2023-02-28T18:01:46;3.90;99.90
42989;DHT22;28622;43.716;20.668;2023-02-28T18:04:12;3.90;99.90
42989;DHT22;28622;43.716;20.668;2023-02-28T18:09:16;3.90;99.90
42989;DHT22;28622;43.716;20.668;2023-02-28T18:11:43;3.80;99.90
42989;DHT22;28622;43.716;20.668;2023-02-28T18:14:14;3.90;99.90
42989;DHT22;28622;43.716;20.668;2023-02-28T18:16:40;3.90;99.90
42989;DHT22;28622;43.716;20.668;2023-02-28T18:19:06;3.90;99.90
42989;DHT22;28622;43.716;20.668;2023-02-28T18:21:34;3.90;99.90
42989;DHT22;28622;43.716;20.668;2023-02-28T18:24:00;3.90;99.90
42989;DHT22;28622;43.716;20.668;2023-02-28T18:26:26;3.90;99.90
42989;DHT22;28622;43.716;20.668;2023-02-28T18:28:52;3.90;99.90
42989;DHT22;28622;43.716;20.668;2023-02-28T18:31:18;3.90;99.90
42989;DHT22;28622;43.716;20.668;2023-02-28T18:33:48;3.90;99.90